Luka, Czech Republic

11:28 PM CET on March 06, 2015 (GMT +0100)
Bouzov | Change Station
CLOSE
Current Station
Personal Weather Station
Location: Bouzov, OLOMOUC REGION
Elevation: 1224 ft
Nearby Weather Stations

Elev 1224 ft 49.71 °N, 16.92 °E | Updated 3 minutes ago

Clear
Clear
38.5 °F
Feels Like 38 °F
N
0.0
Wind Variable Wind from NW
Gusts 0.0 mph

Today
High -- | Low -- °F
--% Chance of Precip.
Yesterday
High -- | Low -- °F
Precip. -- in
6:25 AM 5:42 PM
Full, 99% visible
Pressure 30.57 in
Visibility -9999.0 miles
Clouds
Windchill 38 °F
Dew Point 33 °F
Humidity 73%
Rainfall in
Snow Depth Not available.
UV Not available.
Pollen Not available.
Air Quality Not available.
Flu Activity Not available.
METAR LKTB 062200Z 29005KT CAVOK 02/M03 Q1035 NOSIG

More Conditions Fewer Conditions

Pressure 30.57 in
Visibility -9999.0 miles
Clouds
Windchill 38 °F
Dew Point 33 °F
Humidity 73%
Rainfall in
Snow Depth Not available.
UV Not available.
Pollen Not available.
Air Quality Not available.
Flu Activity Not available.
METAR LKTB 062200Z 29005KT CAVOK 02/M03 Q1035 NOSIG

More Conditions Fewer Conditions

10-Day Weather Forecast

Almanac

Astronomy

Mar. 06, 2015 Rise Set
Actual Time
Civil Twilight
Nautical Twilight
Astronomical Twilight
Moon
Length of Visible Light
Length of Day
Tomorrow will be .
, % of the Moon is Illuminated

Today's Extremes

Country Highs Country Lows

Community

WunderPhotos

Upload Photos

1,803,420 photos uploaded!

WunderBlogs® & News

Nearby

Air Quality

  Air Quality AQ Index Pollutant
Not available.

Snow Depth

Station Depth Elevation

Earthquake Activity

City Distance Mag. Time & Date
Minimum magnitude displayed is 2.5.

Coastal Water Temperatures

Place Temperature

Nearby Weather Stations